Newport Beach, CA (92661)

9:48 PM PDT on June 24, 2017 (GMT -0700)
Beacon Bay | | Change Station
Active Advisory: Beach Hazard Statement

Elev 7 ft 33.61 °N, 117.90 °W | Updated 1 minute ago

Clear
Clear
63.9 °F
Feels Like 63.9 °F
N
6.0
Wind Variable Wind from West

Today
High -- | Low -- °F
--% Chance of Precip.
Yesterday
High -- | Low -- °F
Precip. -- in
Pressure 29.85 in
Visibility 10.0 miles
Clouds Clear
Dew Point 63 °F
Humidity 96%
Rainfall 0.00 in
Snow Depth Not available.
5:42 AM 8:05 PM
New Moon, 2% visible
METAR KSNA 250353Z 22004KT 10SM CLR 19/16 A2985 RMK AO2 SLP106 T01940161
Pressure 29.85 in
Visibility 10.0 miles
Clouds Clear
Dew Point 63 °F
Humidity 96%
Rainfall 0.00 in
Snow Depth Not available.
5:42 AM 8:05 PM
New Moon, 2% visible
METAR KSNA 250353Z 22004KT 10SM CLR 19/16 A2985 RMK AO2 SLP106 T01940161

Get Your Daily Forecast Email!

Thanks for signing up!

Be on the lookout for a verification email in your inbox.

You'll start receiving severe weather alerts in your inbox..

×

10-Day Weather Forecast

Almanac

Astronomy

Jun. 24, 2017 Rise Set
Actual Time
Civil Twilight
Nautical Twilight
Astronomical Twilight
Moon
Length of Visible Light
Length of Day
Tomorrow will be .
, % of the Moon is Illuminated

Today's Extremes

State Highs State Lows

Community

WunderPhotos

Category 6

Welcome to Category 6. This is the collective home for Weather Underground's featured writeups by Dr. Jeff Masters (right), Bob Henson (left), Chris Burt, and other regular contributors.

Nearby

Air Quality

  Air Quality AQ Index Pollutant
Not available.

Snow Depth

Station Depth Elevation

Earthquake Activity

City Distance Mag. Time & Date
Minimum magnitude displayed is 2.5.

Coastal Water Temperatures

Place Temperature

Stations

Nearby Weather Stations

Station Location Temp. Windchill Dew Point Humidity Wind Precip. Elev Updated Type
                   

Watches & Warnings

Beach Hazard Statement
Issued: 1:05 PM PDT Jun. 24, 2017 – National Weather Service

... Beach hazards statement remains in effect until 11 PM PDT this
evening...

* tides... highest tide of around 6.9 to 7.2 feet tonight at 955
PM.

* Impacts... minor tidal overflow of low lying beach areas will be
possible during the time of highest tide this evening.

Precautionary/preparedness actions...

A beach hazards statement for minor tidal overflow means that
high astronomical tides may produce minor flooding of low-lying
areas along the beach such as beach parking lots. Coastal
officials should take the necessary precautionary measures to
safeguard their beaches.